Map

Track Data

SID SEASON NUMBER BASIN SUBBASIN NAME ISO_TIME NATURE LAT LON WMO_WIND WMO_PRES WMO_AGENCY TRACK_TYPE DIST2LAND LANDFALL IFLAG USA_AGENCY USA_ATCF_ID USA_LAT USA_LON USA_RECORD USA_STATUS USA_WIND USA_PRES USA_SSHS USA_R34_NE USA_R34_SE USA_R34_SW USA_R34_NW USA_R50_NE USA_R50_SE USA_R50_SW USA_R50_NW USA_R64_NE USA_R64_SE USA_R64_SW USA_R64_NW USA_POCI USA_ROCI USA_RMW USA_EYE TOKYO_LAT TOKYO_LON TOKYO_GRADE TOKYO_WIND TOKYO_PRES TOKYO_R50_DIR TOKYO_R50_LONG TOKYO_R50_SHORT TOKYO_R30_DIR TOKYO_R30_LONG TOKYO_R30_SHORT TOKYO_LAND CMA_LAT CMA_LON CMA_CAT CMA_WIND CMA_PRES HKO_LAT HKO_LON HKO_CAT HKO_WIND HKO_PRES NEWDELHI_LAT NEWDELHI_LON NEWDELHI_GRADE NEWDELHI_WIND NEWDELHI_PRES NEWDELHI_CI NEWDELHI_DP NEWDELHI_POCI REUNION_LAT REUNION_LON REUNION_TYPE REUNION_WIND REUNION_PRES REUNION_TNUM REUNION_CI REUNION_RMW REUNION_R34_NE REUNION_R34_SE REUNION_R34_SW REUNION_R34_NW REUNION_R50_NE REUNION_R50_SE REUNION_R50_SW REUNION_R50_NW REUNION_R64_NE REUNION_R64_SE REUNION_R64_SW REUNION_R64_NW BOM_LAT BOM_LON BOM_TYPE BOM_WIND BOM_PRES BOM_TNUM BOM_CI BOM_RMW BOM_R34_NE BOM_R34_SE BOM_R34_SW BOM_R34_NW BOM_R50_NE BOM_R50_SE BOM_R50_SW BOM_R50_NW BOM_R64_NE BOM_R64_SE BOM_R64_SW BOM_R64_NW BOM_ROCI BOM_POCI BOM_EYE BOM_POS_METHOD BOM_PRES_METHOD NADI_LAT NADI_LON NADI_CAT NADI_WIND NADI_PRES WELLINGTON_LAT WELLINGTON_LON WELLINGTON_WIND WELLINGTON_PRES DS824_LAT DS824_LON DS824_STAGE DS824_WIND DS824_PRES TD9636_LAT TD9636_LON TD9636_STAGE TD9636_WIND TD9636_PRES TD9635_LAT TD9635_LON TD9635_WIND TD9635_PRES TD9635_ROCI NEUMANN_LAT NEUMANN_LON NEUMANN_CLASS NEUMANN_WIND NEUMANN_PRES MLC_LAT MLC_LON MLC_CLASS MLC_WIND MLC_PRES USA_GUST BOM_GUST BOM_GUST_PER REUNION_GUST REUNION_GUST_PER USA_SEAHGT USA_SEARAD_NE USA_SEARAD_SE USA_SEARAD_SW USA_SEARAD_NW STORM_SPEED STORM_DIR
2011253N20145 2011 66 WP MM ROKE 2011-09-09 12:00:00 TS 20.3500 144.550 1008 tokyo main 1683 1671 _OO___________ -1 20.4000 144.700 2 1008 0 0 0 20.3000 144.400 1 23 1006 10 264
2011253N20145 2011 66 WP MM ROKE 2011-09-09 15:00:00 TS 20.2955 144.015 main 1671 1653 _PP___________ -1 20.3505 144.117 2 1007 0 0 20.2404 143.912 1 23 1006 9 264
2011253N20145 2011 66 WP MM ROKE 2011-09-09 18:00:00 TS 20.2500 143.550 1006 tokyo main 1653 1645 _OO___________ -1 20.3000 143.600 2 1006 0 0 0 20.2000 143.500 1 23 1006 8 264
2011253N20145 2011 66 WP MM ROKE 2011-09-09 21:00:00 TS 20.2209 143.193 main 1645 1619 _PP___________ -1 20.2497 143.185 2 1007 0 0 20.1922 143.200 1 23 1006 9 269
2011253N20145 2011 66 WP MM ROKE 2011-09-10 00:00:00 TS 20.2333 142.556 1008 tokyo main 1619 1596 OOO___________ jtwc_wp WP182011 20.5000 140.200 DB 20 1007 -3 1010 240 55 20.2000 142.800 2 1008 0 0 0 20.2000 142.900 1 23 1006 12 270
2011253N20145 2011 66 WP MM ROKE 2011-09-10 03:00:00 TS 20.2138 141.923 main 1592 1571 PPP___________ WP182011 20.4451 139.850 DB 20 1007 -3 1010 240 55 20.1199 142.365 2 1007 0 0 20.1921 142.517 1 23 1005 12 269
2011253N20145 2011 66 WP MM ROKE 2011-09-10 06:00:00 TS 20.2182 141.282 1006 tokyo main 1571 1537 OOO___________ jtwc_wp WP182011 20.4000 139.500 TD 20 1007 -1 1010 240 55 20.1000 141.900 2 1006 0 0 0 20.2000 142.000 1 23 1004 12 274
2011253N20145 2011 66 WP MM ROKE 2011-09-10 09:00:00 TS 20.2901 140.613 main 1537 1503 PPP___________ WP182011 20.3774 139.150 TD 20 1007 -1 1010 240 55 20.2422 141.430 2 1005 0 0 20.2506 141.258 1 23 1003 12 277
2011253N20145 2011 66 WP MM ROKE 2011-09-10 12:00:00 TS 20.3667 140.067 1004 tokyo main 1503 1475 OOO___________ jtwc_wp WP182011 20.4000 138.800 TD 20 1007 -1 1011 240 55 20.4000 140.900 2 1004 0 0 0 20.3000 140.500 1 23 1002 10 276
2011253N20145 2011 66 WP MM ROKE 2011-09-10 15:00:00 TS 20.3998 139.567 main 1475 1448 PPP___________ WP182011 20.4774 138.450 TD 20 1006 -1 1009 240 52 20.4301 140.257 2 1003 0 0 20.2917 139.992 1 26 1001 9 274
2011253N20145 2011 66 WP MM ROKE 2011-09-10 18:00:00 TS 20.4333 139.067 1002 tokyo main 1448 1413 OOO___________ jtwc_wp WP182011 20.6000 138.100 DB 20 1006 -3 1008 240 50 20.4000 139.600 2 1002 0 0 0 20.3000 139.500 1 29 1000 10 276
2011253N20145 2011 66 WP MM ROKE 2011-09-10 21:00:00 TS 20.5000 138.531 main 1407 1371 PPP___________ WP182011 20.7573 137.765 DB 20 1006 -3 1008 240 50 20.3496 139.042 2 1002 0 0 20.3930 138.785 1 29 1000 10 278
2011253N20145 2011 66 WP MM ROKE 2011-09-11 00:00:00 TS 20.5667 138.000 1002 tokyo main 1371 1345 OOO___________ jtwc_wp WP182011 20.9000 137.400 DB 20 1006 -3 1008 240 50 20.3000 138.500 2 1002 0 0 0 20.5000 138.100 1 29 1000 10 276
2011253N20145 2011 66 WP MM ROKE 2011-09-11 03:00:00 TS 20.5999 137.492 main 1345 1325 PPP___________ WP182011 20.9727 136.927 DB 20 1006 -3 1008 240 50 20.2776 137.885 2 1002 0 0 20.5495 137.662 1 29 1000 9 274
2011253N20145 2011 66 WP MM ROKE 2011-09-11 06:00:00 TS 20.6333 137.033 1002 tokyo main 1320 1292 OOO___________ jtwc_wp WP182011 21.0000 136.500 DB 20 1006 -3 1008 240 50 20.3000 137.300 2 1002 0 0 0 20.6000 137.300 1 29 1000 8 276
2011253N20145 2011 66 WP MM ROKE 2011-09-11 09:00:00 TS 20.6874 136.629 main 1292 1268 PPP___________ WP182011 20.9998 136.255 DB 20 1006 -3 1008 252 50 20.3698 136.805 2 1002 0 0 20.6926 136.828 1 29 1000 7 281
2011253N20145 2011 66 WP MM ROKE 2011-09-11 12:00:00 TS 20.7667 136.300 1002 tokyo main 1268 1255 OOO___________ jtwc_wp WP182011 21.0000 136.100 DB 20 1007 -3 1008 265 50 20.5000 136.400 2 1002 0 0 0 20.8000 136.400 1 29 1000 6 286
2011253N20145 2011 66 WP MM ROKE 2011-09-11 15:00:00 TS 20.8558 135.997 main 1245 1227 PPP___________ WP182011 21.0275 135.920 DB 20 1007 -3 1007 265 50 20.6700 136.003 2 1002 0 0 20.8699 136.068 1 29 1000 5 298
2011253N20145 2011 66 WP MM ROKE 2011-09-11 18:00:00 TS 21.0000 135.833 1002 tokyo main 1227 1206 OOO___________ jtwc_wp WP182011 21.1000 135.800 DB 20 1007 -3 1007 265 50 20.9000 135.800 2 1002 0 0 0 21.0000 135.900 1 29 1000 4 343
2011253N20145 2011 66 WP MM ROKE 2011-09-11 21:00:00 TS 21.2499 135.866 main 1210 1184 PPP___________ WP182011 21.2425 135.777 DB 22 1005 -3 1007 265 50 21.2074 135.902 2 1002 0 0 21.2999 135.917 1 29 1000 5 20
2011253N20145 2011 66 WP MM ROKE 2011-09-12 00:00:00 TS 21.5000 136.033 1002 tokyo main 1184 1179 OOO___________ jtwc_wp WP182011 21.4000 135.800 TD 25 1004 -1 1007 265 50 21.5000 136.200 2 1002 0 0 0 21.6000 136.100 1 29 1000 5 41
2011253N20145 2011 66 WP MM ROKE 2011-09-12 03:00:00 TS 21.6442 136.235 main 1183 1173 PPP___________ WP182011 21.5075 135.800 TD 25 1004 -1 1007 265 50 21.6876 136.535 2 1002 0 0 21.7376 136.370 1 29 1000 5 60
2011253N20145 2011 66 WP MM ROKE 2011-09-12 06:00:00 TS 21.7333 136.467 1002 tokyo main 1187 1178 OOO___________ jtwc_wp WP182011 21.6000 135.800 TD 25 1004 -1 1007 265 50 21.8000 136.900 2 1002 0 0 0 21.8000 136.700 1 29 1000 4 69
2011253N20145 2011 66 WP MM ROKE 2011-09-12 09:00:00 TS 21.8025 136.672 main 1187 1183 PPP___________ WP182011 21.7075 135.793 TD 25 1004 -1 1006 257 50 21.8499 137.215 2 1001 0 0 21.8500 137.008 1 29 1000 4 70
2011253N20145 2011 66 WP MM ROKE 2011-09-12 12:00:00 TS 21.8667 136.867 1000 tokyo main 1188 1188 OOO___________ jtwc_wp WP182011 21.8000 135.800 TD 25 1004 -1 1006 250 50 21.9000 137.500 2 1000 0 0 0 21.9000 137.300 1 29 1000 4 67
2011253N20145 2011 66 WP MM ROKE 2011-09-12 15:00:00 TS 21.9542 137.063 main 1189 1184 PPP___________ WP182011 21.8575 135.842 TD 25 1004 -1 1005 257 50 22.0275 137.772 2 1000 0 0 21.9775 137.573 1 29 1000 4 60
2011253N20145 2011 66 WP MM ROKE 2011-09-12 18:00:00 TS 22.0667 137.233 1000 tokyo main 1184 1180 OOO___________ jtwc_wp WP182011 21.9000 135.900 TD 25 1004 -1 1004 265 50 22.2000 138.000 2 1000 0 0 0 22.1000 137.800 1 29 1000 4 47
2011253N20145 2011 66 WP MM ROKE 2011-09-12 21:00:00 TS 22.2041 137.355 main 1186 1172 PPP___________ WP182011 21.9348 135.890 TD 25 1004 -1 1004 267 50 22.3925 138.195 2 1000 0 0 22.2850 137.980 1 29 1000 4 36
2011253N20145 2011 66 WP MM ROKE 2011-09-13 00:00:00 TS 22.3667 137.467 1000 tokyo main 1172 1162 OOO___________ jtwc_wp WP182011 22.0000 136.000 TD 25 1004 -1 1004 270 50 22.6000 138.300 2 1000 0 0 0 22.5000 138.100 1 29 1000 4 36
2011253N20145 2011 66 WP MM ROKE 2011-09-13 03:00:00 TS 22.5401 137.622 main 1167 1153 PPP___________ WP182011 22.1203 136.397 TD 27 1002 -1 1004 270 50 22.8000 138.280 2 999 0 0 22.7000 138.187 1 31 999 5 37
2011253N20145 2011 66 WP MM ROKE 2011-09-13 06:00:00 TS 22.7333 137.767 35 998 tokyo main 1159 1140 OOO___________ jtwc_wp WP182011 22.3000 136.900 TD 30 1000 -1 1004 270 50 23.0000 138.200 3 35 998 0 2 180 100 0 22.9000 138.200 2 34 998 5 30
2011253N20145 2011 66 WP MM ROKE 2011-09-13 09:00:00 TS 22.9350 137.870 main 1145 1126 PPP___________ WP182011 22.5125 137.330 TD 30 1000 -1 1004 270 50 23.2000 138.165 3 35 998 0 2 180 100 23.0925 138.115 2 34 996 4 24
2011253N20145 2011 66 WP MM ROKE 2011-09-13 12:00:00 TS 23.0923 137.938 35 998 tokyo main 1126 1104 OOOO__________ jtwc_wp WP182011 22.8000 137.700 TD 30 1000 -1 1004 270 50 23.4000 138.100 3 35 998 0 2 180 100 0 23.3000 138.000 2 34 995 22.2000 138.000 TD 25 999 5 14
2011253N20145 2011 66 WP MM ROKE 2011-09-13 15:00:00 TS 23.3900 137.989 main 1104 1077 PPPP__________ WP182011 23.1849 138.062 TD 30 1000 -1 1004 270 47 23.5925 137.958 3 35 998 0 2 190 105 23.5350 137.957 2 34 995 23.1050 137.973 TD 27 998 7 2
2011253N20145 2011 66 WP MM ROKE 2011-09-13 18:00:00 TS 23.7467 137.953 35 998 tokyo main 1077 1029 OOOO__________ jtwc_wp WP182011 23.6000 138.200 TD 30 1000 -1 1004 270 45 23.8000 137.800 3 35 998 0 2 200 110 0 23.8000 137.900 2 34 995 23.8000 137.900 TD 30 998 7 346
2011253N20145 2011 66 WP MM ROKE 2011-09-13 21:00:00 TS 24.0787 137.806 main 1029 999 PPPP__________ WP182011 23.9877 137.941 TD 30 1000 -1 1004 265 45 24.0573 137.730 3 35 997 0 2 210 115 24.1223 137.810 2 34 995 24.1474 137.745 TD 30 998 7 327
2011253N20145 2011 66 WP MM ROKE 2011-09-14 00:00:00 TS 24.3250 137.550 35 996 tokyo main 999 963 OOOO__________ jtwc_wp WP182011 24.3000 137.500 TD 30 1000 -1 1004 260 45 24.3000 137.600 3 35 996 0 1 220 120 0 24.4000 137.600 2 34 995 24.3000 137.500 TD 30 998 6 307
2011253N20145 2011 66 WP MM ROKE 2011-09-14 03:00:00 TS 24.4583 137.255 main 963 925 PPPP__________ WP182011 24.4568 137.209 TD 30 1000 -1 1004 260 45 24.4494 137.354 3 35 996 0 1 220 130 24.4997 137.239 2 34 995 24.4271 137.217 TD 27 999 7 292
2011253N20145 2011 66 WP MM ROKE 2011-09-14 06:00:00 TS 24.6000 136.800 35 996 tokyo main 925 864 OOOO__________ jtwc_wp WP182011 24.6000 136.800 TD 30 1000 -1 1004 260 45 24.6000 136.900 3 35 996 0 1 220 140 0 24.6000 136.700 2 34 995 24.6000 136.800 TD 25 1000 11 294
2011253N20145 2011 66 WP MM ROKE 2011-09-14 09:00:00 TS 24.9164 136.129 main 859 794 PPPP__________ WP182011 24.8929 136.111 TD 30 1000 -1 1004 255 45 24.8577 136.183 3 35 995 0 1 235 140 24.9000 136.011 2 34 995 25.0150 136.211 TD 25 999 15 295
2011253N20145 2011 66 WP MM ROKE 2011-09-14 12:00:00 TS 25.2250 135.325 35 994 tokyo main 788 727 OOOO__________ jtwc_wp WP182011 25.2000 135.300 TD 30 1000 -1 1004 250 45 25.1000 135.300 3 35 994 0 1 250 140 0 25.2000 135.200 2 34 995 25.4000 135.500 TD 25 999 16 288
2011253N20145 2011 66 WP MM ROKE 2011-09-14 15:00:00 TS 25.3866 134.482 main 727 690 PPPP__________ WP182011 25.4673 134.535 TD 30 1000 -1 1004 260 45 25.2306 134.355 3 35 994 0 1 275 145 25.3380 134.312 2 34 995 25.5103 134.727 TD 25 998 15 279
2011253N20145 2011 66 WP MM ROKE 2011-09-14 18:00:00 TS 25.4500 133.700 35 994 tokyo main 680 671 OOOO__________ jtwc_wp WP182011 25.6000 133.800 TD 30 1000 -1 1004 270 45 25.3000 133.500 3 35 994 0 8 300 150 0 25.4000 133.500 2 34 995 25.5000 134.000 TD 25 998 12 272
2011253N20145 2011 66 WP MM ROKE 2011-09-14 21:00:00 TS 25.4311 133.122 main 667 655 PPPP__________ WP182011 25.4424 133.103 TD 30 1000 -1 1004 270 45 25.3415 132.940 3 35 993 0 8 300 150 25.4492 132.947 2 34 995 25.4914 133.500 TD 30 996 10 269
2011253N20145 2011 66 WP MM ROKE 2011-09-15 00:00:00 TS 25.4250 132.625 35 992 tokyo main 652 618 OOOO__________ jtwc_wp WP182011 25.3000 132.500 TD 30 1000 -1 1004 270 45 25.4000 132.500 3 35 992 0 8 300 150 0 25.5000 132.500 2 34 995 25.5000 133.000 TS 35 995 10 278
2011253N20145 2011 66 WP MM ROKE 2011-09-15 03:00:00 TS 25.5621 132.036 main 616 596 PPPP__________ WP182011 25.5197 132.006 TD 30 1000 -1 1003 255 45 25.5501 131.963 3 37 991 0 8 290 155 25.5926 131.963 2 36 993 25.5860 132.213 TS 35 992 10 287
2011253N20145 2011 66 WP MM ROKE 2011-09-15 06:00:00 TS 25.7250 131.525 40 990 tokyo main 596 582 OOOO__________ jtwc_wp WP182011 25.8000 131.600 TD 30 1000 -1 1002 240 45 25.7000 131.500 3 40 990 0 1 280 160 0 25.7000 131.500 2 38 992 25.7000 131.500 TS 35 990 8 288
2011253N20145 2011 66 WP MM ROKE 2011-09-15 09:00:00 TS 25.8052 131.208 main 582 570 PPPP__________ WP182011 25.8649 131.220 TD 30 1000 -1 1002 240 45 25.7572 131.220 3 40 990 0 1 280 160 25.7997 131.212 2 38 992 25.7993 131.182 TS 35 990 5 287
2011253N20145 2011 66 WP MM ROKE 2011-09-15 12:00:00 TS 25.8750 130.975 40 990 tokyo main 570 558 OOOO__________ jtwc_wp WP182011 25.9000 130.900 TD 30 1000 -1 1002 240 45 25.8000 131.000 3 40 990 0 1 280 160 0 25.9000 131.000 2 38 992 25.9000 131.000 TS 35 990 5 291
2011253N20145 2011 66 WP MM ROKE 2011-09-15 15:00:00 TS 25.9857 130.681 main 558 547 PPPP__________ WP182011 26.0499 130.620 TD 32 998 -1 1002 240 45 25.8851 130.685 3 40 990 0 1 280 160 26.0000 130.742 2 38 992 26.0076 130.678 TS 35 990 5 295
2011253N20145 2011 66 WP MM ROKE 2011-09-15 18:00:00 TS 26.1000 130.425 40 990 tokyo main 547 537 OOOO__________ jtwc_wp WP182011 26.2000 130.400 TS 35 996 0 1002 240 45 26.0000 130.400 3 40 990 0 1 280 160 0 26.1000 130.500 2 38 992 26.1000 130.400 TS 35 990 4 299
2011253N20145 2011 66 WP MM ROKE 2011-09-15 21:00:00 TS 26.1968 130.252 main 537 526 PPPP__________ WP182011 26.2649 130.235 TS 35 996 0 1002 240 45 26.1574 130.220 3 40 990 0 1 280 160 26.2075 130.285 2 38 992 26.1574 130.270 TS 35 990 3 303
2011253N20145 2011 66 WP MM ROKE 2011-09-16 00:00:00 TS 26.2750 130.125 40 990 tokyo main 527 518 OOOO__________ jtwc_wp WP182011 26.3000 130.100 TS 35 996 0 1002 240 45 26.3000 130.100 3 40 990 0 2 280 160 0 26.3000 130.100 2 38 992 26.2000 130.200 TS 35 990 3 305
2011253N20145 2011 66 WP MM ROKE 2011-09-16 03:00:00 TS 26.3587 129.998 main 518 518 PPPP__________ WP182011 26.3800 129.943 TS 37 994 0 1002 240 45 26.3950 130.000 3 42 987 0 2 280 160 26.3875 129.935 2 41 991 26.2725 130.115 TS 37 989 2 294
2011253N20145 2011 66 WP MM ROKE 2011-09-16 06:00:00 TS 26.3750 129.875 45 985 tokyo main 519 519 OOOO__________ jtwc_wp WP182011 26.4000 129.800 TS 40 993 0 1002 240 45 26.4000 129.900 3 45 985 0 2 280 160 0 26.4000 129.800 2 44 990 26.3000 130.000 TS 40 988 3 252
2011253N20145 2011 66 WP MM ROKE 2011-09-16 09:00:00 TS 26.2769 129.721 main 533 533 PPPP__________ WP182011 26.2875 129.685 TS 40 993 0 1002 255 45 26.2951 129.727 3 45 985 0 2 280 160 26.2875 129.677 2 44 990 26.2376 129.792 TS 40 988 4 222
2011253N20145 2011 66 WP MM ROKE 2011-09-16 12:00:00 TS 26.1000 129.600 45 985 tokyo main 557 557 OOOO__________ jtwc_wp WP182011 26.1000 129.600 TS 40 993 0 90 80 80 80 1003 270 45 26.1000 129.600 3 45 985 0 2 280 160 0 26.1000 129.600 2 44 990 26.1000 129.600 TS 40 988 4 201
2011253N20145 2011 66 WP MM ROKE 2011-09-16 15:00:00 TS 25.8969 129.558 main 579 579 PPPP__________ WP182011 25.9075 129.512 TS 40 993 0 90 80 80 80 1003 275 40 25.8575 129.628 3 45 985 0 2 280 160 25.9075 129.578 2 44 990 25.9150 129.512 TS 42 986 4 0
2011253N20145 2011 66 WP MM ROKE 2011-09-16 18:00:00 TS 25.6750 129.575 45 985 tokyo main 601 601 OOOO__________ jtwc_wp WP182011 25.7000 129.500 TS 40 993 0 90 80 80 80 1004 280 35 25.6000 129.700 3 45 985 0 3 280 160 0 25.7000 129.600 2 44 990 25.7000 129.500 TS 45 985 4 172
2011253N20145 2011 66 WP MM ROKE 2011-09-16 21:00:00 TS 25.4619 129.623 main 623 623 PPPP__________ WP182011 25.5076 129.635 TS 45 989 0 87 82 82 80 1004 270 32 25.3775 129.700 3 45 985 0 3 265 150 25.4775 129.635 2 44 990 25.4850 129.520 TS 45 985 4 165
2011253N20145 2011 66 WP MM ROKE 2011-09-17 00:00:00 TS 25.2750 129.700 45 985 tokyo main 643 643 OOOO__________ jtwc_wp WP182011 25.3000 129.800 TS 50 985 0 85 85 85 80 1004 260 30 25.2000 129.700 3 45 985 0 3 250 140 0 25.3000 129.700 2 44 990 25.3000 129.600 TS 45 985 4 159
2011253N20145 2011 66 WP MM ROKE 2011-09-17 03:00:00 TS 25.1349 129.763 main 664 664 PPPP__________ WP182011 25.0199 129.827 TS 52 983 0 97 97 97 90 1004 260 25 25.0849 129.712 3 47 982 0 3 250 140 25.2425 129.777 2 46 990 25.1925 129.735 TS 47 982 3 148
2011253N20145 2011 66 WP MM ROKE 2011-09-17 06:00:00 TS 25.0250 129.875 50 980 tokyo main 674 673 OOOO__________ jtwc_wp WP182011 24.8000 129.900 TS 55 982 0 110 110 110 100 20 20 20 20 1004 260 20 25.0000 129.800 4 50 980 0 3 250 140 0 25.2000 129.900 3 48 990 25.1000 129.900 STS 50 980 4 127
2011253N20145 2011 66 WP MM ROKE 2011-09-17 09:00:00 TS 24.9064 130.094 main 683 682 PPPP__________ WP182011 24.7552 130.192 TS 57 980 0 95 95 100 95 22 22 22 22 1004 260 20 24.8852 130.043 4 52 980 0 3 250 140 25.0501 130.093 3 51 987 24.9350 130.050 STS 52 977 5 116
2011253N20145 2011 66 WP MM ROKE 2011-09-17 12:00:00 TS 24.8250 130.325 55 980 tokyo main 693 692 OOOO__________ jtwc_wp WP182011 24.8000 130.500 TS 60 978 0 80 80 90 90 25 25 25 25 1004 260 20 5 24.8000 130.300 4 55 980 9 40 40 3 250 140 0 24.9000 130.300 3 54 985 24.8000 130.200 STS 55 975 3 112
2011253N20145 2011 66 WP MM ROKE 2011-09-17 15:00:00 TS 24.7761 130.448 main 692 692 PPPP__________ WP182011 24.8124 130.615 TS 62 976 0 85 85 95 95 25 25 25 25 1003 252 20 24.7473 130.393 4 57 977 9 45 45 3 235 140 24.7974 130.450 3 56 982 24.7474 130.335 STS 55 975 2 90
2011253N20145 2011 66 WP MM ROKE 2011-09-17 18:00:00 TS 24.8250 130.575 60 975 tokyo main 692 669 OOOO__________ jtwc_wp WP182011 24.9000 130.700 TY 65 974 1 90 90 100 100 25 25 25 25 1002 245 20 24.8000 130.500 4 60 975 9 50 50 3 220 140 0 24.8000 130.600 3 58 980 24.8000 130.500 STS 55 975 4 58
2011253N20145 2011 66 WP MM ROKE 2011-09-17 21:00:00 TS 25.0035 130.856 main 670 637 PPPP__________ WP182011 25.1201 130.945 TY 65 974 1 100 100 110 110 30 30 30 30 1002 242 20 25.0060 130.854 4 60 975 9 50 50 3 215 130 24.9401 130.837 3 58 980 24.9477 130.787 STS 55 975 6 44
2011253N20145 2011 66 WP MM ROKE 2011-09-18 00:00:00 TS 25.2750 131.050 60 975 tokyo main 637 603 OOOO__________ jtwc_wp WP182011 25.4000 131.100 TY 65 974 1 110 110 120 120 35 35 35 35 1002 240 20 25.3000 131.100 4 60 975 9 50 50 2 210 120 0 25.2000 131.000 3 58 980 25.2000 131.000 STS 55 975 6 10
2011253N20145 2011 66 WP MM ROKE 2011-09-18 03:00:00 TS 25.5931 130.970 60 975 tokyo main 603 569 POPP__________ WP182011 25.6651 130.953 TY 62 976 0 110 110 120 120 35 35 35 35 1002 240 20 25.6000 131.000 4 60 975 9 50 50 2 210 120 0 25.5499 130.960 3 58 980 25.5574 130.968 STS 55 975 7 338
2011253N20145 2011 66 WP MM ROKE 2011-09-18 06:00:00 TS 25.9000 130.775 60 975 tokyo main 569 547 OOOO__________ jtwc_wp WP182011 25.9000 130.700 TS 60 978 0 110 110 120 120 35 35 35 35 1002 240 20 25.9000 130.800 4 60 975 9 50 50 2 210 120 0 25.9000 130.800 3 58 980 25.9000 130.800 STS 55 975 6 327
2011253N20145 2011 66 WP MM ROKE 2011-09-18 09:00:00 TS 26.1013 130.605 60 975 tokyo main 547 536 POPP__________ WP182011 26.0800 130.535 TS 60 978 0 100 100 100 100 30 30 30 30 1002 235 20 26.1000 130.700 4 60 975 9 50 50 2 210 120 0 26.1376 130.593 3 58 980 26.0876 130.593 STS 55 975 5 316
2011253N20145 2011 66 WP MM ROKE 2011-09-18 12:00:00 TS 26.2250 130.425 60 975 tokyo main 536 525 OOOO__________ jtwc_wp WP182011 26.2000 130.400 TS 60 978 0 90 90 80 80 25 25 25 25 1002 230 20 26.2000 130.500 4 60 975 9 50 50 2 210 120 0 26.3000 130.400 3 58 980 26.2000 130.400 STS 55 975 3 313
2011253N20145 2011 66 WP MM ROKE 2011-09-18 15:00:00 TS 26.3125 130.347 60 975 tokyo main 526 514 POPP__________ WP182011 26.2425 130.262 TS 60 978 0 100 100 90 90 25 25 25 25 1003 235 20 26.3000 130.500 4 60 975 9 50 50 2 210 120 0 26.4074 130.305 3 58 980 26.3000 130.320 STS 55 975 2 327
2011253N20145 2011 66 WP MM ROKE 2011-09-18 18:00:00 TS 26.4000 130.300 60 975 tokyo main 514 503 OOOO__________ jtwc_wp WP182011 26.3000 130.200 TS 60 978 0 110 110 100 100 25 25 25 25 1004 240 20 26.4000 130.400 4 60 975 9 50 50 2 210 120 0 26.5000 130.300 3 58 980 26.4000 130.300 STS 55 975 2 0
2011253N20145 2011 66 WP MM ROKE 2011-09-18 21:00:00 TS 26.5069 130.364 60 975 tokyo main 503 480 POPP__________ WP182011 26.4400 130.277 TS 62 976 0 102 102 90 90 27 27 25 25 1004 245 20 26.5000 130.500 4 60 975 9 50 50 2 250 160 0 26.5975 130.392 3 58 980 26.4900 130.285 STS 57 973 3 18
2011253N20145 2011 66 WP MM ROKE 2011-09-19 00:00:00 TS 26.7250 130.425 60 975 tokyo main 480 424 OOOO__________ jtwc_wp WP182011 26.7000 130.400 TY 65 974 1 95 95 80 80 30 30 25 25 1004 250 20 26.7000 130.500 4 60 975 9 50 50 2 300 200 0 26.8000 130.500 3 58 980 26.7000 130.300 STS 60 972 7 10
2011253N20145 2011 66 WP MM ROKE 2011-09-19 03:00:00 TS 27.1887 130.497 60 975 tokyo main 424 368 POPP__________ WP182011 27.1350 130.487 TY 67 972 1 97 97 85 85 30 30 25 25 1004 250 20 27.2000 130.600 4 60 975 9 50 50 2 300 200 0 27.2350 130.537 3 58 980 27.1850 130.365 STS 60 972 10 2
2011253N20145 2011 66 WP MM ROKE 2011-09-19 06:00:00 TS 27.6750 130.450 60 975 tokyo main 368 337 OOOO__________ jtwc_wp WP182011 27.6000 130.500 TY 70 970 1 100 100 90 90 30 30 25 25 15 15 15 15 1004 250 20 27.7000 130.400 4 60 975 9 50 50 2 300 200 0 27.7000 130.500 3 58 980 27.7000 130.400 STS 60 972 8 348
2011253N20145 2011 66 WP MM ROKE 2011-09-19 09:00:00 TS 28.0025 130.299 60 975 tokyo main 337 316 POPP__________ WP182011 27.9750 130.298 TY 80 963 1 105 105 95 95 32 32 27 27 17 17 17 17 1004 255 20 28.0000 130.300 4 60 975 9 50 50 2 300 250 0 28.0101 130.320 3 65 970 28.0250 130.278 STS 62 971 6 337
2011253N20145 2011 66 WP MM ROKE 2011-09-19 12:00:00 TS 28.2000 130.200 65 970 tokyo main 316 313 OOOO__________ jtwc_wp WP182011 28.2000 130.200 TY 90 956 2 110 110 100 100 35 35 30 30 20 20 20 20 1004 260 20 28.2000 130.200 5 65 970 9 50 50 9 300 300 0 28.2000 130.200 4 73 960 28.2000 130.200 T 65 970 2 23
2011253N20145 2011 66 WP MM ROKE 2011-09-19 15:00:00 TS 28.1887 130.387 65 970 tokyo main 313 312 POPP__________ WP182011 28.1279 130.533 TY 95 952 2 120 105 100 115 47 47 45 45 30 30 30 30 1003 227 22 28.2000 130.400 5 65 970 9 50 50 9 300 300 0 28.2422 130.303 4 80 955 28.1847 130.311 T 67 967 4 90
2011253N20145 2011 66 WP MM ROKE 2011-09-19 18:00:00 TS 28.2000 130.700 70 965 tokyo main 312 281 OOOO__________ jtwc_wp WP182011 28.1000 131.000 TY 100 948 3 130 100 100 130 60 60 60 60 40 40 40 40 1003 195 25 28.2000 130.600 5 70 965 3 60 40 9 300 300 0 28.3000 130.600 5 87 950 28.2000 130.600 T 70 965 8 65
2011253N20145 2011 66 WP MM ROKE 2011-09-19 21:00:00 TS 28.5008 131.161 70 965 tokyo main 283 246 POPP__________ WP182011 28.5122 131.292 TY 105 944 3 130 100 100 130 60 60 60 60 40 40 40 40 1003 197 32 28.4000 131.200 5 70 965 3 60 40 9 300 300 0 28.5704 131.077 5 92 945 28.5204 131.076 T 72 962 11 48
2011253N20145 2011 66 WP MM ROKE 2011-09-20 00:00:00 TS 28.9250 131.600 75 960 tokyo main 249 236 OOOO__________ jtwc_wp WP182011 29.0000 131.600 TY 110 941 3 130 100 100 130 60 60 60 60 40 40 40 40 1003 200 40 28.9000 131.600 5 75 960 3 60 40 9 300 300 0 28.9000 131.600 5 97 940 28.9000 131.600 T 75 960 9 46
2011253N20145 2011 66 WP MM ROKE 2011-09-20 03:00:00 TS 29.1509 131.920 75 960 tokyo main 231 231 POPP__________ WP182011 29.1999 132.014 TY 110 941 3 135 120 110 125 65 65 65 65 42 42 42 42 1003 200 32 29.2000 131.800 5 75 960 3 60 40 9 300 300 0 29.1268 131.936 5 99 937 29.0768 131.929 T 77 957 8 57
2011253N20145 2011 66 WP MM ROKE 2011-09-20 06:00:00 TS 29.3500 132.350 80 950 tokyo main 235 236 OOOO__________ jtwc_wp WP182011 29.4000 132.500 TY 110 941 3 140 140 120 120 70 70 70 70 45 45 45 45 1003 200 25 20 29.3000 132.300 5 80 950 3 80 60 9 300 300 0 29.4000 132.300 6 101 935 29.3000 132.300 T 80 955 11 57
2011253N20145 2011 66 WP MM ROKE 2011-09-20 09:00:00 TS 29.7458 132.958 80 950 tokyo main 243 232 POPP__________ WP182011 29.7751 133.043 TY 112 939 3 140 140 120 120 70 70 70 70 45 45 45 45 1001 202 25 29.7000 133.000 5 80 950 3 80 60 9 300 300 0 29.7902 132.863 6 101 935 29.7181 132.927 T 82 952 14 48
2011253N20145 2011 66 WP MM ROKE 2011-09-20 12:00:00 TS 30.3000 133.575 85 940 tokyo main 242 221 OOOO__________ jtwc_wp WP182011 30.3000 133.600 TY 115 937 4 140 140 120 120 70 70 70 70 45 45 45 45 1000 205 25 20 30.3000 133.600 5 85 940 3 100 60 3 350 260 0 30.3000 133.500 6 101 935 30.3000 133.600 ST 85 950 16 39
2011253N20145 2011 66 WP MM ROKE 2011-09-20 15:00:00 TS 30.9520 134.091 85 940 tokyo main 216 171 POPP__________ WP182011 30.9694 134.078 TY 115 937 4 150 180 170 140 75 75 75 75 52 52 52 52 1000 212 25 30.9000 134.100 5 85 940 3 100 60 3 350 260 0 30.9121 134.093 6 97 940 31.0267 134.094 ST 85 950 17 33
2011253N20145 2011 66 WP MM ROKE 2011-09-20 18:00:00 TS 31.7000 134.650 85 940 tokyo main 173 134 OOOO__________ jtwc_wp WP182011 31.7000 134.600 TY 115 937 4 160 220 220 160 80 80 80 80 60 60 60 60 1001 220 25 10 31.7000 134.700 5 85 940 3 100 60 3 325 280 0 31.6000 134.700 5 93 945 31.8000 134.600 ST 85 950 17 36
2011253N20145 2011 66 WP MM ROKE 2011-09-20 21:00:00 TS 32.3520 135.271 85 940 tokyo main 120 45 POPP__________ WP182011 32.3195 135.242 TY 107 942 3 140 210 210 122 80 80 80 80 55 55 55 55 1001 230 25 32.4000 135.300 5 85 940 3 100 60 3 325 280 0 32.2615 135.300 5 90 947 32.4270 135.242 ST 85 950 17 40
2011253N20145 2011 66 WP MM ROKE 2011-09-21 00:00:00 TS 33.0250 135.975 80 950 tokyo main 48 35 OOOO__________ jtwc_wp WP182011 33.0000 136.000 TY 100 948 3 120 200 200 85 80 80 80 80 50 50 50 50 1002 240 25 10 33.0000 135.900 5 80 950 3 120 80 9 300 300 0 33.0000 136.000 5 87 950 33.1000 136.000 ST 85 950 20 41
2011253N20145 2011 66 WP MM ROKE 2011-09-21 03:00:00 TS 33.8638 136.837 80 950 tokyo main 44 22 POPP__________ WP182011 33.8088 136.822 TY 87 957 2 135 190 175 90 85 85 75 75 57 57 50 50 1001 240 27 33.9000 136.900 5 80 950 3 120 80 9 300 300 0 33.8159 136.835 5 82 955 33.9304 136.792 ST 82 952 24 40
2011253N20145 2011 66 WP MM ROKE 2011-09-21 05:00:00 TS 34.5393 137.499 80 950 tokyo main 22 0 POPP__________ WP182011 34.4461 137.452 TY 79 963 1 145 183 158 93 88 88 71 71 62 62 50 50 1001 240 29 34.7000 137.600 5 80 950 3 120 80 9 300 300 1 34.4484 137.514 5 78 958 34.5627 137.430 ST 80 954 26 40
2011253N20145 2011 66 WP MM ROKE 2011-09-21 06:00:00 TS 34.8500 137.825 75 955 tokyo main 0 0 OOOO__________ jtwc_wp WP182011 34.8000 137.800 TY 75 967 1 150 180 150 95 90 90 70 70 65 65 50 50 1001 240 30 34.9000 137.800 5 75 955 3 120 80 9 300 300 0 34.8000 137.900 4 77 960 34.9000 137.800 T 80 955 29 45
2011253N20145 2011 66 WP MM ROKE 2011-09-21 09:00:00 TS 35.9104 139.153 70 970 tokyo main 0 0 POPP__________ WP182011 35.9286 138.945 TY 67 972 1 150 180 150 95 90 90 70 70 32 32 25 25 1001 240 30 35.9000 139.200 5 70 970 3 100 60 9 300 300 0 35.9316 139.292 4 72 965 35.8813 139.173 T 75 960 33 44
2011253N20145 2011 66 WP MM ROKE 2011-09-21 12:00:00 TS 37.1933 140.647 65 975 tokyo main 0 0 OOOO__________ jtwc_wp WP182011 37.3000 140.300 TS 60 978 0 150 180 150 95 90 90 70 70 1001 240 30 37.1000 140.700 5 65 975 3 100 60 9 300 300 0 37.3000 140.800 4 68 970 37.1000 140.700 T 70 965 38 39
2011253N20145 2011 66 WP MM ROKE 2011-09-21 15:00:00 TS 38.8547 142.173 65 975 tokyo main 36 36 POPP__________ WP182011 38.9329 141.867 TS 55 981 0 150 180 150 95 90 90 70 70 38.7000 142.400 5 65 975 3 100 60 3 350 300 0 39.0268 142.134 4 66 972 38.7980 142.139 T 67 970 41 34
2011253N20145 2011 66 WP MM ROKE 2011-09-21 18:00:00 MX 40.5833 143.567 65 975 tokyo main 148 112 OOOO__________ jtwc_wp WP182011 40.7000 143.600 EX 50 985 -4 150 180 150 95 90 90 70 70 40.5000 143.600 5 65 975 3 100 60 3 350 250 0 40.7000 143.500 4 64 975 40.5000 143.600 T 65 975 37 36
2011253N20145 2011 66 WP MM ROKE 2011-09-21 21:00:00 TS 41.8189 145.049 65 975 tokyo main 123 91 _OPP__________ WP182011 EX -4 41.8000 145.000 5 65 975 3 100 60 3 350 200 0 41.8706 145.078 4 61 977 41.7536 145.088 T 62 977 31 46
2011253N20145 2011 66 WP MM ROKE 2011-09-22 00:00:00 MX 42.7444 146.600 60 980 tokyo main 104 104 _OOO__________ -1 42.7000 146.600 4 60 980 3 80 40 3 350 200 0 42.8000 146.600 9 58 980 42.7000 146.600 STS 60 980 28 48
2011253N20145 2011 66 WP MM ROKE 2011-09-22 03:00:00 MX 43.6786 147.836 60 980 tokyo main 109 89 _OP___________ -1 43.6000 147.800 4 60 980 3 80 40 3 350 200 0 43.7571 147.872 9 53 981 STS 25 44
2011253N20145 2011 66 WP MM ROKE 2011-09-22 06:00:00 ET 44.5429 149.000 982 tokyo main 90 50 _OO___________ -1 44.5000 149.000 6 982 0 0 0 44.6000 149.000 9 48 982 23 46
2011253N20145 2011 66 WP MM ROKE 2011-09-22 09:00:00 ET 45.2459 150.137 main 54 50 _PP___________ -1 45.2212 150.157 6 983 0 0 45.2952 150.098 9 48 983 20 50
2011253N20145 2011 66 WP MM ROKE 2011-09-22 12:00:00 ET 45.8200 151.200 984 tokyo main 70 70 _OO___________ -1 45.8000 151.200 6 984 0 0 0 45.9000 151.200 9 48 984 17 51
2011253N20145 2011 66 WP MM ROKE 2011-09-22 15:00:00 ET 46.3190 152.018 main 124 124 _P____________ -1 46.3190 152.018 6 986 0 0 9 15 50
2011253N20145 2011 66 WP MM ROKE 2011-09-22 18:00:00 ET 46.8000 152.900 988 tokyo main 205 205 _O____________ -1 46.8000 152.900 6 988 0 0 0 17 56
2011253N20145 2011 66 WP MM ROKE 2011-09-22 21:00:00 ET 47.2825 154.097 main 310 244 _P____________ -1 47.2825 154.097 6 990 0 0 21 61
2011253N20145 2011 66 WP MM ROKE 2011-09-23 00:00:00 ET 47.8000 155.600 992 tokyo main 244 224 _O____________ -1 47.8000 155.600 6 992 0 0 0 24 64
2011253N20145 2011 66 WP MM ROKE 2011-09-23 03:00:00 ET 48.3461 157.380 main 237 230 _P____________ -1 48.3461 157.380 6 994 0 0 28 65
2011253N20145 2011 66 WP MM ROKE 2011-09-23 06:00:00 ET 49.0000 159.400 996 tokyo main 282 282 _O____________ -1 49.0000 159.400 6 996 0 0 0 31 61
2011253N20145 2011 66 WP MM ROKE 2011-09-23 09:00:00 ET 49.8877 161.582 main 320 320 _P____________ -1 49.8877 161.582 6 996 0 0 33 59
2011253N20145 2011 66 WP MM ROKE 2011-09-23 12:00:00 ET 50.7000 163.800 996 tokyo main 366 366 _O____________ -1 50.7000 163.800 6 996 0 0 0 29 65
2011253N20145 2011 66 WP MM ROKE 2011-09-23 15:00:00 ET 51.1309 165.733 main 440 440 _P____________ -1 51.1309 165.733 6 997 0 0 25 74
2011253N20145 2011 66 WP MM ROKE 2011-09-23 18:00:00 ET 51.4000 167.700 998 tokyo main 521 521 _O____________ -1 51.4000 167.700 6 998 0 0 0 27 78
2011253N20145 2011 66 WP MM ROKE 2011-09-23 21:00:00 ET 51.6959 169.949 main 614 614 _P____________ -1 51.6959 169.949 6 999 0 0 30 80
2011253N20145 2011 66 WP MM ROKE 2011-09-24 00:00:00 ET 51.9000 172.500 1000 tokyo main 753 753 _O____________ -1 51.9000 172.500 6 1000 0 0 0 33 85
2011253N20145 2011 66 WP MM ROKE 2011-09-24 03:00:00 ET 51.9811 175.282 main 899 876 _P____________ -1 51.9811 175.282 6 1000 0 0 36 90
2011253N20145 2011 66 WP MM ROKE 2011-09-24 06:00:00 ET 51.9000 178.400 1000 tokyo main 863 655 _O____________ -1 51.9000 178.400 6 1000 0 0 0 40 95
2011253N20145 2011 66 EP CP ROKE 2011-09-24 09:00:00 ET 51.6315 181.834 main 645 443 _P____________ -1 51.6315 -178.166 6 1000 0 0 44 99
2011253N20145 2011 66 EP CP ROKE 2011-09-24 12:00:00 ET 51.2000 185.400 main 431 _O____________ -1 51.2000 185.400 6 1000 0 0 0 45 101

Digital Typhoon Data and Search

About IBTrACS Database

This database is a web-friendly format of International Best Track Archive for Climate Stewardship (IBTrACS), a global best track data archive curated by NOAA dating back to 1842.

Updated: 2021-10-21